createdAt,value
2023-01-18T00:01:17.185Z,12.80
2023-01-18T00:03:45.586Z,10.70
2023-01-18T00:06:12.739Z,11.23
2023-01-18T00:08:41.621Z,11.25
2023-01-18T00:11:09.965Z,9.43
2023-01-18T00:16:12.209Z,10.30
2023-01-18T00:18:40.182Z,9.40
2023-01-18T00:21:09.383Z,12.55
2023-01-18T00:23:36.735Z,11.45
2023-01-18T00:26:09.287Z,9.75
2023-01-18T00:28:37.386Z,10.80
2023-01-18T00:31:17.466Z,8.50
2023-01-18T00:34:11.717Z,13.25
2023-01-18T00:39:05.301Z,9.70
2023-01-18T00:41:32.019Z,9.20
2023-01-18T00:43:58.851Z,10.10
2023-01-18T00:46:29.976Z,10.48
2023-01-18T00:48:59.592Z,11.23
2023-01-18T00:51:27.199Z,11.25
2023-01-18T00:54:06.084Z,15.95
2023-01-18T00:56:32.825Z,11.77
2023-01-18T00:58:59.495Z,11.57
2023-01-18T01:01:26.236Z,10.50
2023-01-18T01:04:11.765Z,12.60
2023-01-18T01:06:40.248Z,8.27
2023-01-18T01:09:06.959Z,9.85
2023-01-18T01:11:34.449Z,7.80
2023-01-18T01:14:20.181Z,6.25
2023-01-18T01:17:05.720Z,6.40
2023-01-18T01:22:22.974Z,5.40
2023-01-18T01:25:08.369Z,9.88
2023-01-18T01:27:35.073Z,7.40
2023-01-18T01:30:04.191Z,5.88
2023-01-18T01:32:31.473Z,6.75
2023-01-18T01:35:01.757Z,7.00
2023-01-18T01:37:28.417Z,7.70
2023-01-18T01:39:56.863Z,8.23
2023-01-18T01:42:23.539Z,7.30
2023-01-18T01:44:52.193Z,6.88
2023-01-18T01:47:27.339Z,7.43
2023-01-18T01:49:59.250Z,7.35
2023-01-18T01:52:34.477Z,6.32
2023-01-18T01:55:09.387Z,6.60
2023-01-18T01:57:40.479Z,4.82
2023-01-18T02:00:19.814Z,7.83
2023-01-18T02:03:06.367Z,8.23
2023-01-18T02:05:36.873Z,5.75
2023-01-18T02:08:30.920Z,10.70
2023-01-18T02:10:57.737Z,5.20
2023-01-18T02:13:26.474Z,11.52
2023-01-18T02:16:18.957Z,8.20
2023-01-18T02:18:59.061Z,5.85
2023-01-18T02:21:35.661Z,6.93
2023-01-18T02:24:26.770Z,9.65
2023-01-18T02:27:11.720Z,7.63
2023-01-18T02:29:40.652Z,5.63
2023-01-18T02:35:15.121Z,10.85
2023-01-18T02:37:49.565Z,8.57
2023-01-18T02:40:27.511Z,7.07
2023-01-18T02:43:15.820Z,9.02
2023-01-18T02:46:14.796Z,9.45
2023-01-18T02:48:52.619Z,8.60
2023-01-18T02:51:23.102Z,7.95
2023-01-18T02:53:49.769Z,12.00
2023-01-18T02:56:34.459Z,8.52
2023-01-18T02:59:05.243Z,13.80
2023-01-18T03:01:40.379Z,9.77
2023-01-18T03:04:18.317Z,11.30
2023-01-18T03:06:49.365Z,13.45
2023-01-18T03:09:27.022Z,10.02
2023-01-18T03:12:23.471Z,10.82
2023-01-18T03:15:10.799Z,11.10
2023-01-18T03:17:40.273Z,10.68
2023-01-18T03:20:12.897Z,11.40
2023-01-18T03:22:39.361Z,11.77
2023-01-18T03:25:09.846Z,8.90
2023-01-18T03:27:40.263Z,10.30
2023-01-18T03:30:27.019Z,12.73
2023-01-18T03:33:12.835Z,12.43
2023-01-18T03:35:40.351Z,8.85
2023-01-18T03:38:07.193Z,13.00
2023-01-18T03:40:35.685Z,9.37
2023-01-18T03:43:16.886Z,17.67
2023-01-18T03:45:45.931Z,14.75
2023-01-18T03:48:22.781Z,10.93
2023-01-18T03:51:05.666Z,14.65
2023-01-18T03:53:40.310Z,9.73
2023-01-18T03:56:18.522Z,14.20
2023-01-18T03:58:46.223Z,10.73
2023-01-18T04:01:13.540Z,10.73
2023-01-18T04:03:40.337Z,11.15
2023-01-18T04:06:08.021Z,11.18
2023-01-18T04:08:34.833Z,8.40
2023-01-18T04:11:01.568Z,9.20
2023-01-18T04:13:28.307Z,9.40
2023-01-18T04:15:55.094Z,9.17
2023-01-18T04:18:21.808Z,9.50
2023-01-18T04:20:49.222Z,10.57
2023-01-18T04:23:16.087Z,9.60
2023-01-18T04:25:56.538Z,10.77
2023-01-18T04:28:30.143Z,10.10
2023-01-18T04:31:00.340Z,12.47
2023-01-18T04:33:27.121Z,11.37
2023-01-18T04:35:54.973Z,8.68
2023-01-18T04:38:21.832Z,11.20
2023-01-18T04:41:09.437Z,8.30
2023-01-18T04:43:36.887Z,8.50
2023-01-18T04:46:04.005Z,9.40
2023-01-18T04:48:30.803Z,11.00
2023-01-18T04:50:57.773Z,11.10
2023-01-18T04:53:24.533Z,10.43
2023-01-18T04:55:55.393Z,12.18
2023-01-18T04:58:22.393Z,9.55
2023-01-18T05:00:49.321Z,10.48
2023-01-18T05:03:16.356Z,10.13
2023-01-18T05:05:43.040Z,12.68
2023-01-18T05:08:09.756Z,10.40
2023-01-18T05:13:18.762Z,10.32
2023-01-18T05:15:45.518Z,6.68
2023-01-18T05:18:12.380Z,12.60
2023-01-18T05:23:10.863Z,10.68
2023-01-18T05:28:05.098Z,8.87
2023-01-18T05:30:40.376Z,11.23
2023-01-18T05:33:07.470Z,10.43
2023-01-18T05:35:37.690Z,10.63
2023-01-18T05:38:04.504Z,10.00
2023-01-18T05:40:31.135Z,11.02
2023-01-18T05:42:58.326Z,11.85
2023-01-18T05:45:25.305Z,8.90
2023-01-18T05:47:55.036Z,9.02
2023-01-18T05:50:22.802Z,7.85
2023-01-18T05:52:49.636Z,10.88
2023-01-18T05:55:19.471Z,7.70
2023-01-18T05:57:48.889Z,7.85
2023-01-18T06:00:16.119Z,8.27
2023-01-18T06:02:42.849Z,6.90
2023-01-18T06:05:09.886Z,8.67
2023-01-18T06:07:36.525Z,13.00
2023-01-18T06:10:14.683Z,12.20
2023-01-18T06:12:42.258Z,10.80
2023-01-18T06:15:15.961Z,9.60
2023-01-18T06:17:47.046Z,6.00
2023-01-18T06:20:14.449Z,6.73
2023-01-18T06:22:41.361Z,8.40
2023-01-18T06:25:10.117Z,7.90
2023-01-18T06:27:37.845Z,9.23
2023-01-18T06:30:07.075Z,10.27
2023-01-18T06:35:06.821Z,8.68
2023-01-18T06:40:12.867Z,8.03
2023-01-18T06:45:24.637Z,8.20
2023-01-18T06:47:53.326Z,11.20
2023-01-18T06:50:26.405Z,7.93
2023-01-18T06:55:38.012Z,5.93
2023-01-18T06:58:04.958Z,9.00
2023-01-18T07:03:07.102Z,9.30
2023-01-18T07:05:37.701Z,9.70
2023-01-18T07:08:04.821Z,13.67
2023-01-18T07:10:32.721Z,10.33
2023-01-18T07:13:00.065Z,9.73
2023-01-18T07:15:38.116Z,14.63
2023-01-18T07:18:04.877Z,11.70
2023-01-18T07:20:31.633Z,7.73
2023-01-18T07:22:59.138Z,10.33
2023-01-18T07:25:28.612Z,10.17
2023-01-18T07:27:58.090Z,12.57
2023-01-18T07:30:25.903Z,13.43
2023-01-18T07:32:53.543Z,14.13
2023-01-18T07:35:24.620Z,14.70
2023-01-18T07:37:53.393Z,15.33
2023-01-18T07:40:22.461Z,14.40
2023-01-18T07:43:00.840Z,15.53
2023-01-18T07:45:41.064Z,14.75
2023-01-18T07:48:07.874Z,16.10
2023-01-18T07:50:36.135Z,14.57
2023-01-18T07:53:08.923Z,18.60
2023-01-18T07:58:11.654Z,16.70
2023-01-18T08:03:05.782Z,15.77
2023-01-18T08:05:32.838Z,16.88
2023-01-18T08:07:59.873Z,16.67
2023-01-18T08:10:27.782Z,13.30
2023-01-18T08:12:54.917Z,14.45
2023-01-18T08:15:26.124Z,10.90
2023-01-18T08:17:55.936Z,17.27
2023-01-18T08:20:25.376Z,17.23
2023-01-18T08:22:59.110Z,15.63
2023-01-18T08:25:30.538Z,17.58
2023-01-18T08:28:06.570Z,16.20
2023-01-18T08:33:06.064Z,16.42
2023-01-18T08:35:40.573Z,18.40
2023-01-18T08:38:07.388Z,20.38
2023-01-18T08:40:34.154Z,19.15
2023-01-18T08:43:02.809Z,17.05
2023-01-18T08:45:30.288Z,20.52
2023-01-18T08:48:02.717Z,19.05
2023-01-18T08:50:30.965Z,19.15
2023-01-18T08:53:00.321Z,23.77
2023-01-18T08:55:28.003Z,17.33
2023-01-18T08:57:57.759Z,18.63
2023-01-18T09:00:27.158Z,21.67
2023-01-18T09:02:54.003Z,20.30
2023-01-18T09:05:20.764Z,15.97
2023-01-18T09:07:47.656Z,16.13
2023-01-18T09:10:14.784Z,23.50
2023-01-18T09:12:41.417Z,14.77
2023-01-18T09:15:08.945Z,16.33
2023-01-18T09:17:41.722Z,16.23
2023-01-18T09:20:09.907Z,18.73
2023-01-18T09:22:37.310Z,19.47
2023-01-18T09:25:05.906Z,18.47
2023-01-18T09:27:33.259Z,19.42
2023-01-18T09:29:59.941Z,14.95
2023-01-18T09:32:27.584Z,12.82
2023-01-18T09:34:54.971Z,17.13
2023-01-18T09:37:22.469Z,14.23
2023-01-18T09:39:52.836Z,15.18
2023-01-18T09:42:27.525Z,17.83
2023-01-18T09:44:59.875Z,16.88
2023-01-18T09:47:34.351Z,18.42
2023-01-18T09:50:21.717Z,14.40
2023-01-18T09:53:13.880Z,17.15
2023-01-18T09:55:56.934Z,19.33
2023-01-18T09:58:42.498Z,16.63
2023-01-18T10:01:17.239Z,13.23
2023-01-18T10:03:59.603Z,17.20
2023-01-18T10:06:33.846Z,13.68
2023-01-18T10:09:12.270Z,15.50
2023-01-18T10:11:45.112Z,13.83
2023-01-18T10:14:21.009Z,12.73
2023-01-18T10:16:56.741Z,13.55
2023-01-18T10:19:30.264Z,12.88
2023-01-18T10:22:27.003Z,14.83
2023-01-18T10:25:16.634Z,11.68
2023-01-18T10:27:49.236Z,14.25
2023-01-18T10:30:29.124Z,12.77
2023-01-18T10:32:59.464Z,12.38
2023-01-18T10:38:12.361Z,12.48
2023-01-18T10:40:40.564Z,9.10
2023-01-18T10:43:12.898Z,14.80
2023-01-18T10:45:40.549Z,12.90
2023-01-18T10:48:26.555Z,14.50
2023-01-18T10:50:59.519Z,14.10
2023-01-18T10:53:41.939Z,13.80
2023-01-18T10:56:22.200Z,15.68
2023-01-18T10:58:49.380Z,12.65
2023-01-18T11:01:23.817Z,12.90
2023-01-18T11:03:58.764Z,14.57
2023-01-18T11:06:32.364Z,17.73
2023-01-18T11:09:02.295Z,15.23
2023-01-18T11:11:40.716Z,9.77
2023-01-18T11:14:27.672Z,14.75
2023-01-18T11:16:59.007Z,19.40
2023-01-18T11:19:29.952Z,15.98
2023-01-18T11:21:57.140Z,13.18
2023-01-18T11:24:31.360Z,12.68
2023-01-18T11:27:02.149Z,13.65
2023-01-18T11:32:09.929Z,12.77
2023-01-18T11:37:33.102Z,13.00
2023-01-18T11:40:18.596Z,14.13
2023-01-18T11:42:46.612Z,12.15
2023-01-18T11:45:25.500Z,14.57
2023-01-18T11:48:26.682Z,11.52
2023-01-18T11:51:03.710Z,12.57
2023-01-18T11:53:42.043Z,16.70
2023-01-18T11:56:31.859Z,13.52
2023-01-18T11:59:02.716Z,13.48
2023-01-18T12:01:40.763Z,13.68
2023-01-18T12:04:15.996Z,13.73
2023-01-18T12:06:58.612Z,14.45
2023-01-18T12:09:40.721Z,13.15
2023-01-18T12:12:23.874Z,8.90
2023-01-18T12:15:21.667Z,14.45
2023-01-18T12:20:59.896Z,18.50
2023-01-18T12:23:40.723Z,14.38
2023-01-18T12:26:13.581Z,13.85
2023-01-18T12:29:17.819Z,19.05
2023-01-18T12:32:14.732Z,13.43
2023-01-18T12:34:49.432Z,11.65
2023-01-18T12:37:42.824Z,11.10
2023-01-18T12:40:40.711Z,12.63
2023-01-18T12:43:10.609Z,17.23
2023-01-18T12:45:41.188Z,14.55
2023-01-18T12:48:29.752Z,14.18
2023-01-18T12:50:58.578Z,15.63
2023-01-18T12:53:41.425Z,16.25
2023-01-18T12:56:17.805Z,13.57
2023-01-18T12:58:54.599Z,16.05
2023-01-18T13:01:24.454Z,16.50
2023-01-18T13:03:59.173Z,13.45
2023-01-18T13:06:27.532Z,15.35
2023-01-18T13:09:03.265Z,15.95
2023-01-18T13:11:36.527Z,15.95
2023-01-18T13:14:26.607Z,14.18
2023-01-18T13:17:30.205Z,14.75
2023-01-18T13:20:16.652Z,18.83
2023-01-18T13:23:04.145Z,21.77
2023-01-18T13:25:39.744Z,18.50
2023-01-18T13:28:32.527Z,16.00
2023-01-18T13:31:05.113Z,16.58
2023-01-18T13:33:40.841Z,17.30
2023-01-18T13:36:14.342Z,18.63
2023-01-18T13:39:03.529Z,17.23
2023-01-18T13:41:31.010Z,14.85
2023-01-18T13:44:03.714Z,16.10
2023-01-18T13:46:36.820Z,15.75
2023-01-18T13:49:37.133Z,16.65
2023-01-18T13:52:31.268Z,19.90
2023-01-18T13:55:11.179Z,18.05
2023-01-18T13:57:40.727Z,15.27
2023-01-18T14:00:24.625Z,18.73
2023-01-18T14:02:57.300Z,16.02
2023-01-18T14:05:31.787Z,21.35
2023-01-18T14:08:08.260Z,16.67
2023-01-18T14:10:37.939Z,15.30
2023-01-18T14:13:08.629Z,20.05
2023-01-18T14:15:41.066Z,18.27
2023-01-18T14:18:27.501Z,23.65
2023-01-18T14:21:08.653Z,20.17
2023-01-18T14:23:38.300Z,23.92
2023-01-18T14:26:07.826Z,18.52
2023-01-18T14:28:43.952Z,17.83
2023-01-18T14:31:19.930Z,19.92
2023-01-18T14:33:47.255Z,21.15
2023-01-18T14:36:28.866Z,18.73
2023-01-18T14:39:18.110Z,24.70
2023-01-18T14:41:51.720Z,20.25
2023-01-18T14:44:40.746Z,16.80
2023-01-18T14:47:26.499Z,20.38
2023-01-18T14:49:55.944Z,19.05
2023-01-18T14:52:28.559Z,19.48
2023-01-18T14:54:56.059Z,16.50
2023-01-18T14:57:24.231Z,20.63
2023-01-18T15:00:15.186Z,15.65
2023-01-18T15:02:43.880Z,17.17
2023-01-18T15:05:20.475Z,18.80
2023-01-18T15:07:57.760Z,18.25
2023-01-18T15:10:26.392Z,17.77
2023-01-18T15:12:57.513Z,19.05
2023-01-18T15:15:32.450Z,18.48
2023-01-18T15:18:12.076Z,23.45
2023-01-18T15:20:39.756Z,16.08
2023-01-18T15:23:06.621Z,20.63
2023-01-18T15:25:33.500Z,22.08
2023-01-18T15:28:22.420Z,21.80
2023-01-18T15:31:00.484Z,20.60
2023-01-18T15:33:33.989Z,21.08
2023-01-18T15:36:06.723Z,21.75
2023-01-18T15:38:37.625Z,15.05
2023-01-18T15:41:10.894Z,17.70
2023-01-18T15:43:42.180Z,16.98
2023-01-18T15:46:15.089Z,15.40
2023-01-18T15:48:52.364Z,17.48
2023-01-18T15:51:40.676Z,17.73
2023-01-18T15:54:11.945Z,20.73
2023-01-18T15:59:10.888Z,16.65
2023-01-18T16:01:37.700Z,18.20
2023-01-18T16:04:25.293Z,17.73
2023-01-18T16:06:55.093Z,17.00
2023-01-18T16:09:26.075Z,17.83
2023-01-18T16:11:57.027Z,19.95
2023-01-18T16:14:32.856Z,26.10
2023-01-18T16:17:06.942Z,19.35
2023-01-18T16:19:44.185Z,22.50
2023-01-18T16:22:24.638Z,16.63
2023-01-18T16:25:06.761Z,20.33
2023-01-18T16:27:34.205Z,20.35
2023-01-18T16:30:17.567Z,21.20
2023-01-18T16:32:44.240Z,22.73
2023-01-18T16:35:17.821Z,22.10
2023-01-18T16:37:45.340Z,27.02
2023-01-18T16:40:20.837Z,18.77
2023-01-18T16:43:05.178Z,20.08
2023-01-18T16:45:38.178Z,25.17
2023-01-18T16:48:05.913Z,22.63
2023-01-18T16:50:35.791Z,22.80
2023-01-18T16:53:03.941Z,19.08
2023-01-18T16:55:33.156Z,27.65
2023-01-18T16:58:20.628Z,22.25
2023-01-18T17:01:08.878Z,23.73
2023-01-18T17:03:36.730Z,22.90
2023-01-18T17:06:06.728Z,20.90
2023-01-18T17:08:33.635Z,21.93
2023-01-18T17:11:01.902Z,21.38
2023-01-18T17:13:28.937Z,22.15
2023-01-18T17:15:55.611Z,22.50
2023-01-18T17:18:26.125Z,24.90
2023-01-18T17:20:53.873Z,34.88
2023-01-18T17:23:22.375Z,22.90
2023-01-18T17:25:49.481Z,22.63
2023-01-18T17:28:21.576Z,23.97
2023-01-18T17:30:49.908Z,22.97
2023-01-18T17:33:19.700Z,23.33
2023-01-18T17:35:46.915Z,22.83
2023-01-18T17:38:30.272Z,30.40
2023-01-18T17:40:57.579Z,24.40
2023-01-18T17:43:39.286Z,25.77
2023-01-18T17:46:08.140Z,24.03
2023-01-18T17:51:10.321Z,25.73
2023-01-18T17:59:10.091Z,31.40
2023-01-18T18:01:37.243Z,31.13
2023-01-18T18:04:07.168Z,32.83
2023-01-18T18:06:36.316Z,37.07
2023-01-18T18:09:06.056Z,32.50
2023-01-18T18:11:32.768Z,31.50
2023-01-18T18:14:00.433Z,28.07
2023-01-18T18:16:27.874Z,36.03
2023-01-18T18:18:58.314Z,26.50
2023-01-18T18:21:27.439Z,31.33
2023-01-18T18:23:54.325Z,34.47
2023-01-18T18:26:21.219Z,39.80
2023-01-18T18:28:47.859Z,35.07
2023-01-18T18:31:16.415Z,43.10
2023-01-18T18:33:48.873Z,31.70
2023-01-18T18:36:15.798Z,41.63
2023-01-18T18:38:44.565Z,34.50
2023-01-18T18:41:11.362Z,37.30
2023-01-18T18:43:38.118Z,39.47
2023-01-18T18:46:07.416Z,41.60
2023-01-18T18:48:34.143Z,44.13
2023-01-18T18:51:02.404Z,39.47
2023-01-18T18:53:38.237Z,45.60
2023-01-18T18:56:10.677Z,43.27
2023-01-18T18:58:46.577Z,46.17
2023-01-18T19:01:21.678Z,48.97
2023-01-18T19:03:50.166Z,44.00
2023-01-18T19:06:17.526Z,47.30
2023-01-18T19:08:48.834Z,46.87
2023-01-18T19:11:16.832Z,41.60
2023-01-18T19:13:49.524Z,50.37
2023-01-18T19:16:16.969Z,44.13
2023-01-18T19:18:43.885Z,47.90
2023-01-18T19:21:22.174Z,49.30
2023-01-18T19:23:48.982Z,51.00
2023-01-18T19:26:15.903Z,52.03
2023-01-18T19:28:42.542Z,51.60
2023-01-18T19:31:09.380Z,49.13
2023-01-18T19:36:14.479Z,55.03
2023-01-18T19:38:46.078Z,37.27
2023-01-18T19:41:15.189Z,44.07
2023-01-18T19:43:43.002Z,49.73
2023-01-18T19:46:12.007Z,40.83
2023-01-18T19:51:21.761Z,50.30
2023-01-18T19:53:49.557Z,42.73
2023-01-18T19:56:16.284Z,50.60
2023-01-18T19:58:42.951Z,38.47
2023-01-18T20:01:26.671Z,35.53
2023-01-18T20:04:01.397Z,48.30
2023-01-18T20:06:28.653Z,41.77
2023-01-18T20:08:55.893Z,46.83
2023-01-18T20:11:22.994Z,43.63
2023-01-18T20:13:51.245Z,43.57
2023-01-18T20:16:22.435Z,45.57
2023-01-18T20:18:51.737Z,39.03
2023-01-18T20:21:19.283Z,42.63
2023-01-18T20:23:46.393Z,33.30
2023-01-18T20:26:18.001Z,45.47
2023-01-18T20:28:49.210Z,37.07
2023-01-18T20:31:16.009Z,42.97
2023-01-18T20:33:42.980Z,47.67
2023-01-18T20:36:10.221Z,39.17
2023-01-18T20:38:37.998Z,44.17
2023-01-18T20:41:06.488Z,37.37
2023-01-18T20:43:33.614Z,45.83
2023-01-18T20:46:05.457Z,50.67
2023-01-18T20:48:34.098Z,44.70
2023-01-18T20:51:01.946Z,40.77
2023-01-18T20:53:30.868Z,45.50
2023-01-18T20:56:09.859Z,42.63
2023-01-18T20:58:40.985Z,38.20
2023-01-18T21:01:15.763Z,54.20
2023-01-18T21:03:44.959Z,37.47
2023-01-18T21:06:12.299Z,43.77
2023-01-18T21:11:11.069Z,37.30
2023-01-18T21:16:05.594Z,35.70
2023-01-18T21:18:37.736Z,49.13
2023-01-18T21:21:05.290Z,44.37
2023-01-18T21:26:09.196Z,49.50
2023-01-18T21:28:36.920Z,44.50
2023-01-18T21:31:05.095Z,39.07
2023-01-18T21:33:32.096Z,41.13
2023-01-18T21:36:07.475Z,43.27
2023-01-18T21:38:35.034Z,37.43
2023-01-18T21:41:23.804Z,38.17
2023-01-18T21:44:11.433Z,44.43
2023-01-18T21:49:06.975Z,34.23
2023-01-18T21:51:40.851Z,39.23
2023-01-18T21:54:16.932Z,31.10
2023-01-18T21:56:44.566Z,37.73
2023-01-18T21:59:12.637Z,16.20
2023-01-18T22:01:40.973Z,40.07
2023-01-18T22:04:31.525Z,35.37
2023-01-18T22:07:01.765Z,35.97
2023-01-18T22:09:33.271Z,34.77
2023-01-18T22:12:01.359Z,40.17
2023-01-18T22:14:28.352Z,38.77
2023-01-18T22:16:55.391Z,31.13
2023-01-18T22:19:22.504Z,36.17
2023-01-18T22:21:50.176Z,43.93
2023-01-18T22:24:17.847Z,48.90
2023-01-18T22:26:45.781Z,41.63
2023-01-18T22:29:13.078Z,40.53
2023-01-18T22:31:40.916Z,30.70
2023-01-18T22:34:15.979Z,33.90
2023-01-18T22:36:42.776Z,37.43
2023-01-18T22:39:11.426Z,38.37
2023-01-18T22:44:05.519Z,46.20
2023-01-18T22:46:32.919Z,41.47
2023-01-18T22:49:00.441Z,50.03
2023-01-18T22:51:27.215Z,55.73
2023-01-18T22:53:56.139Z,41.27
2023-01-18T22:56:25.246Z,43.40
2023-01-18T22:58:53.410Z,35.60
2023-01-18T23:01:38.166Z,33.63
2023-01-18T23:04:08.877Z,40.53
2023-01-18T23:06:40.898Z,38.73
2023-01-18T23:09:09.638Z,43.73
2023-01-18T23:11:36.696Z,40.27
2023-01-18T23:14:22.343Z,36.17
2023-01-18T23:17:07.964Z,36.53
2023-01-18T23:19:34.981Z,38.60
2023-01-18T23:22:07.468Z,39.77
2023-01-18T23:24:36.298Z,34.73
2023-01-18T23:27:04.740Z,36.37
2023-01-18T23:29:32.824Z,39.37
2023-01-18T23:31:59.701Z,36.73
2023-01-18T23:34:26.524Z,34.47
2023-01-18T23:36:53.704Z,40.57
2023-01-18T23:42:24.413Z,33.60
2023-01-18T23:45:10.213Z,37.60
2023-01-18T23:47:40.881Z,45.17
2023-01-18T23:50:26.482Z,45.13
2023-01-18T23:53:12.101Z,34.87
2023-01-18T23:58:05.713Z,36.17
